Time;durP1;ratioP1;P1;durP2;ratioP2;P2;SDS_P1;SDS_P2;PMS_P1;PMS_P2;Temp;Humidity;BMP_temperature;BMP_pressure;BME280_temperature;BME280_humidity;BME280_pressure;Samples;Min_cycle;Max_cycle;Signal;HPM_P1;HPM_P2
2022/09/08 00:00:39;;;;;;;3.70;2.20;;;25.20;56.20;26.20;100091.00;;;;5031090;28;20331;-40
2022/09/08 00:03:09;;;;;;;2.47;2.13;;;25.20;56.40;26.00;100092.00;;;;5049239;28;20167;-40
2022/09/08 00:05:38;;;;;;;5.15;2.30;;;25.30;56.40;26.20;100088.00;;;;5049021;28;20248;-41
2022/09/08 00:08:04;;;;;;;2.15;2.03;;;25.20;56.60;26.20;100090.00;;;;5048037;28;20497;-41
2022/09/08 00:10:30;;;;;;;3.88;2.40;;;25.30;56.60;26.10;100081.00;;;;5048363;28;20344;-41
2022/09/08 00:12:56;;;;;;;3.42;2.17;;;25.30;56.60;26.10;100081.00;;;;5047585;28;20283;-41
2022/09/08 00:15:22;;;;;;;2.28;2.08;;;25.20;56.50;26.10;100080.00;;;;5047926;28;20178;-42
2022/09/08 00:17:48;;;;;;;3.83;2.33;;;25.20;56.60;26.10;100047.00;;;;5048876;28;20240;-41
2022/09/08 00:20:15;;;;;;;2.40;2.20;;;25.20;56.60;26.10;100060.00;;;;5057307;28;20257;-41
2022/09/08 00:22:41;;;;;;;5.95;2.60;;;25.20;56.60;26.10;100058.00;;;;5054930;28;20178;-41
2022/09/08 00:25:08;;;;;;;3.17;2.30;;;25.20;56.60;26.10;100047.00;;;;5048784;28;20538;-41
2022/09/08 00:27:33;;;;;;;4.47;2.20;;;25.20;56.60;26.10;100047.00;;;;5048598;28;20171;-40
2022/09/08 00:29:59;;;;;;;4.82;2.40;;;25.20;56.60;26.10;100046.00;;;;5049116;28;20654;-40
2022/09/08 00:32:25;;;;;;;4.35;2.30;;;25.10;56.50;26.00;99994.00;;;;5049174;28;20171;-42
2022/09/08 00:34:51;;;;;;;2.50;2.30;;;25.10;56.50;26.00;100043.00;;;;5052914;28;20177;-41
2022/09/08 00:37:18;;;;;;;2.50;2.30;;;25.10;56.50;26.00;100047.00;;;;5057523;28;20613;-42
2022/09/08 00:39:44;;;;;;;3.40;2.25;;;25.10;56.50;26.00;100039.00;;;;5049163;28;20174;-42
2022/09/08 00:42:10;;;;;;;3.45;2.40;;;25.00;56.40;26.00;100045.00;;;;5048959;28;20215;-40
2022/09/08 00:44:49;;;;;;;3.05;2.40;;;25.10;56.50;26.00;100031.00;;;;5048593;28;20206;-40
2022/09/08 00:47:32;;;;;;;3.25;2.50;;;25.10;56.40;26.00;100035.00;;;;5048190;28;20174;-41
2022/09/08 00:50:09;;;;;;;2.78;2.20;;;25.10;56.50;25.90;100026.00;;;;5047431;28;20647;-41
2022/09/08 00:52:44;;;;;;;4.90;2.47;;;25.00;56.50;25.90;100012.00;;;;5047810;28;20253;-40
2022/09/08 00:55:10;;;;;;;3.13;2.30;;;25.00;56.50;25.90;100001.00;;;;5059666;28;20222;-41
2022/09/08 00:57:36;;;;;;;2.97;2.38;;;24.90;56.60;25.80;100010.00;;;;5062624;28;20170;-40
2022/09/08 01:00:07;;;;;;;2.90;2.22;;;24.80;56.70;25.80;100012.00;;;;5048622;28;20721;-41
2022/09/08 01:02:33;;;;;;;3.42;2.30;;;24.70;56.60;25.80;100004.00;;;;5049346;28;20534;-41
2022/09/08 01:05:06;;;;;;;5.32;2.60;;;24.70;56.80;25.70;100005.00;;;;5048790;28;20239;-41
2022/09/08 01:14:00;;;;;;;2.92;2.40;;;24.70;56.60;25.70;99984.00;;;;5046409;28;20265;-42
2022/09/08 01:16:25;;;;;;;2.67;2.30;;;24.70;56.70;25.70;99987.00;;;;5047431;28;20194;-40
2022/09/08 01:18:51;;;;;;;4.28;2.50;;;24.70;56.70;25.70;99993.00;;;;5047302;28;20234;-40
2022/09/08 01:21:27;;;;;;;2.65;2.45;;;24.70;56.80;25.70;99970.00;;;;5047342;28;20289;-41
2022/09/08 01:24:18;;;;;;;2.50;2.30;;;24.70;56.80;25.70;100002.00;;;;5046372;28;20336;-41
2022/09/08 01:27:07;;;;;;;2.75;2.50;;;24.70;56.80;25.60;99988.00;;;;5046971;28;20635;-41
2022/09/08 01:29:33;;;;;;;3.53;2.35;;;24.70;56.80;25.60;99995.00;;;;5046019;28;20159;-41
2022/09/08 01:31:58;;;;;;;2.58;2.38;;;24.60;56.80;25.60;99991.00;;;;5045555;28;20193;-40
2022/09/08 01:34:24;;;;;;;3.25;2.28;;;24.60;56.80;25.50;99994.00;;;;5047377;28;20167;-41
2022/09/08 01:36:50;;;;;;;3.70;2.42;;;24.60;56.90;25.50;99934.00;;;;5062157;28;20279;-40
2022/09/08 01:39:16;;;;;;;2.95;2.60;;;24.50;56.80;25.50;99985.00;;;;5046911;28;20205;-42
2022/09/08 01:41:41;;;;;;;3.38;2.70;;;24.50;57.00;25.50;100004.00;;;;5047201;28;20466;-40
2022/09/08 01:44:07;;;;;;;3.55;2.80;;;24.50;57.00;25.50;99994.00;;;;5047411;28;20193;-40
2022/09/08 01:46:33;;;;;;;2.97;2.70;;;24.50;57.10;25.50;99999.00;;;;5046896;28;20297;-40
2022/09/08 01:48:58;;;;;;;2.90;2.70;;;24.50;57.10;25.50;99998.00;;;;5046745;28;20232;-40
2022/09/08 01:51:25;;;;;;;3.10;2.80;;;24.50;56.90;25.50;99993.00;;;;5047311;28;20190;-42
2022/09/08 01:53:51;;;;;;;3.38;2.60;;;24.50;56.90;25.40;99991.00;;;;5047680;28;20166;-40
2022/09/08 01:56:17;;;;;;;3.22;2.50;;;24.50;56.90;25.40;99939.00;;;;5046207;28;20185;-40
2022/09/08 01:58:43;;;;;;;2.80;2.50;;;24.50;56.90;25.40;99998.00;;;;5047479;28;20170;-41
2022/09/08 02:01:08;;;;;;;3.00;2.50;;;24.50;56.90;25.40;99991.00;;;;5047017;28;20194;-40
2022/09/08 02:03:35;;;;;;;2.83;2.53;;;24.50;57.00;25.40;99998.00;;;;5046630;28;20228;-40
2022/09/08 02:06:02;;;;;;;2.90;2.50;;;24.50;57.10;25.40;99999.00;;;;5045081;28;20262;-41
2022/09/08 02:08:28;;;;;;;4.38;2.70;;;24.40;57.00;25.40;99997.00;;;;5045210;28;20181;-40
2022/09/08 02:10:56;;;;;;;3.40;2.40;;;24.50;57.00;25.40;100002.00;;;;5046120;28;20206;-42
2022/09/08 02:13:22;;;;;;;4.63;2.55;;;24.50;57.10;25.40;100002.00;;;;5045129;28;20167;-41
2022/09/08 02:15:48;;;;;;;3.55;2.42;;;24.50;57.20;25.40;100005.00;;;;5061590;28;20170;-41
2022/09/08 02:18:14;;;;;;;2.50;2.13;;;24.50;57.30;25.40;100004.00;;;;5053258;28;20174;-41
2022/09/08 02:20:40;;;;;;;4.60;2.53;;;24.60;57.40;25.40;100004.00;;;;5056374;28;20194;-41
2022/09/08 02:23:05;;;;;;;3.53;2.43;;;24.60;58.10;25.40;99994.00;;;;5046877;28;20253;-41
2022/09/08 02:25:31;;;;;;;3.17;2.40;;;24.50;57.50;25.40;100003.00;;;;5046687;28;20194;-41
2022/09/08 02:27:57;;;;;;;2.93;2.40;;;24.60;57.50;25.40;99997.00;;;;5046225;28;20276;-42
2022/09/08 02:30:23;;;;;;;2.78;2.38;;;24.60;57.60;25.40;99990.00;;;;5045871;28;20534;-41
2022/09/08 02:32:49;;;;;;;2.65;2.40;;;24.60;57.80;25.40;100003.00;;;;5045897;28;20378;-41
2022/09/08 02:35:16;;;;;;;2.97;2.47;;;24.60;57.70;25.40;100007.00;;;;5046557;28;20178;-41
2022/09/08 02:37:42;;;;;;;2.75;2.20;;;24.60;58.10;25.40;100007.00;;;;5044776;28;20174;-40
2022/09/08 02:40:08;;;;;;;3.17;2.53;;;24.60;58.30;25.40;100020.00;;;;5046140;28;20205;-41
2022/09/08 02:42:34;;;;;;;2.78;2.50;;;24.60;58.10;25.40;100024.00;;;;5046452;28;20182;-41
2022/09/08 02:45:00;;;;;;;3.88;2.40;;;24.60;58.30;25.40;100014.00;;;;5046128;28;20666;-41
2022/09/08 02:47:25;;;;;;;5.32;2.50;;;24.60;58.30;25.40;100009.00;;;;5045518;28;20170;-41
2022/09/08 02:49:51;;;;;;;3.40;2.20;;;24.60;58.40;25.30;99966.00;;;;5045804;28;20231;-40
2022/09/08 02:52:17;;;;;;;2.97;2.17;;;24.60;58.50;25.30;100014.00;;;;5045652;28;20197;-41
2022/09/08 02:54:43;;;;;;;2.95;2.33;;;24.50;58.80;25.30;99950.00;;;;5045752;28;20781;-40
2022/09/08 02:57:09;;;;;;;3.05;2.40;;;24.50;58.90;25.30;100028.00;;;;5046240;28;20401;-40
2022/09/08 02:59:35;;;;;;;3.20;2.80;;;24.40;59.20;25.30;100026.00;;;;5045693;28;20176;-40
2022/09/08 03:02:00;;;;;;;4.43;2.58;;;24.30;59.30;25.20;100032.00;;;;5045778;28;20697;-41
2022/09/08 03:04:26;;;;;;;2.50;2.28;;;24.40;59.60;25.20;100003.00;;;;5045876;28;20197;-41
2022/09/08 03:06:52;;;;;;;3.25;2.67;;;24.40;59.60;25.20;100031.00;;;;5045475;28;20605;-42
2022/09/08 03:09:18;;;;;;;3.45;2.60;;;24.40;59.70;25.20;100035.00;;;;5045376;28;20285;-42
2022/09/08 03:11:43;;;;;;;2.60;2.40;;;24.40;59.70;25.20;100043.00;;;;5045538;28;20205;-40
2022/09/08 03:14:09;;;;;;;4.65;2.70;;;24.30;59.70;25.10;100035.00;;;;5045491;28;20549;-42
2022/09/08 03:16:35;;;;;;;4.32;2.65;;;24.30;59.80;25.10;100037.00;;;;5045674;28;20171;-42
2022/09/08 03:19:00;;;;;;;4.43;2.77;;;24.10;60.00;25.00;100042.00;;;;5045740;28;20178;-42
2022/09/08 03:21:26;;;;;;;4.17;2.77;;;24.10;60.10;25.00;100043.00;;;;5045291;28;20186;-40
2022/09/08 03:23:53;;;;;;;3.17;2.88;;;24.00;60.50;24.90;100039.00;;;;5045945;28;20181;-40
2022/09/08 03:26:20;;;;;;;3.23;2.97;;;23.90;60.70;24.90;100034.00;;;;5045785;28;20237;-40
2022/09/08 03:28:46;;;;;;;3.80;2.90;;;23.90;61.30;24.90;100024.00;;;;5045595;28;20175;-41
2022/09/08 03:31:16;;;;;;;4.00;3.10;;;23.80;61.30;24.90;100027.00;;;;5044719;28;20469;-40
2022/09/08 03:33:42;;;;;;;4.40;2.93;;;23.90;61.70;24.80;100018.00;;;;5046813;28;20166;-39
2022/09/08 03:36:09;;;;;;;3.70;3.27;;;23.90;61.50;24.80;100011.00;;;;5059635;28;20678;-40
2022/09/08 03:38:35;;;;;;;3.40;3.10;;;23.90;61.60;24.80;100012.00;;;;5049400;28;20178;-40
2022/09/08 03:41:08;;;;;;;3.63;3.30;;;23.90;61.10;24.80;100007.00;;;;5049459;28;20325;-40
2022/09/08 03:43:35;;;;;;;3.73;3.43;;;23.90;61.30;24.80;99997.00;;;;5048802;28;20158;-40
2022/09/08 03:46:00;;;;;;;5.13;3.00;;;24.00;61.30;24.80;100010.00;;;;5050605;28;20241;-41
2022/09/08 03:48:26;;;;;;;4.10;3.47;;;23.90;60.80;24.80;100004.00;;;;5056511;28;20208;-41
2022/09/08 03:50:52;;;;;;;3.70;3.40;;;23.90;60.90;24.80;100009.00;;;;5053450;28;20198;-41
2022/09/08 03:53:18;;;;;;;3.70;3.40;;;23.90;60.80;24.80;100014.00;;;;5050125;28;20198;-41
2022/09/08 03:55:43;;;;;;;3.90;3.53;;;23.90;60.90;24.80;100014.00;;;;5049305;28;20175;-40
2022/09/08 03:58:10;;;;;;;3.40;3.10;;;24.00;61.20;24.80;100020.00;;;;5049555;28;20175;-40
2022/09/08 04:00:35;;;;;;;3.40;3.10;;;24.00;61.10;24.80;100011.00;;;;5049876;28;20221;-40
2022/09/08 04:03:01;;;;;;;3.30;3.00;;;24.00;61.10;24.80;100022.00;;;;5049827;28;20229;-42
2022/09/08 04:05:27;;;;;;;4.47;3.10;;;23.90;61.00;24.80;100016.00;;;;5049007;28;20198;-45
2022/09/08 04:07:53;;;;;;;4.37;2.90;;;23.90;61.10;24.80;100021.00;;;;5048917;28;20255;-45
2022/09/08 04:10:19;;;;;;;6.40;3.17;;;24.00;60.90;24.80;100026.00;;;;5049825;28;20202;-44
2022/09/08 04:12:46;;;;;;;12.63;3.23;;;24.00;60.90;24.80;100024.00;;;;5049578;28;20171;-44
2022/09/08 04:15:12;;;;;;;12.27;3.10;;;24.00;60.90;24.80;100011.00;;;;5054290;28;20230;-45
2022/09/08 04:17:38;;;;;;;3.60;2.60;;;24.00;61.80;24.90;100021.00;;;;5056244;28;20206;-44
2022/09/08 04:20:05;;;;;;;2.93;2.73;;;24.10;61.20;24.90;100010.00;;;;5049118;28;20231;-44
2022/09/08 04:22:30;;;;;;;3.60;2.70;;;24.10;61.20;24.90;100014.00;;;;5049420;28;20179;-44
2022/09/08 04:24:56;;;;;;;3.30;2.50;;;24.10;61.60;24.90;100016.00;;;;5049486;28;20202;-44
2022/09/08 04:27:22;;;;;;;3.40;2.70;;;24.00;61.20;24.90;100010.00;;;;5049372;28;20533;-44
2022/09/08 04:29:48;;;;;;;3.13;2.53;;;24.10;61.30;24.90;100005.00;;;;5048371;28;20185;-44
2022/09/08 04:32:14;;;;;;;3.00;2.70;;;24.10;61.30;24.90;100010.00;;;;5049736;28;20174;-44
2022/09/08 04:34:39;;;;;;;3.17;2.50;;;24.10;61.50;24.90;100007.00;;;;5049308;28;20162;-44
2022/09/08 04:37:06;;;;;;;5.83;2.70;;;24.10;61.30;24.70;100010.00;;;;5048710;28;20704;-45
2022/09/08 04:39:32;;;;;;;4.23;2.30;;;24.10;61.00;24.90;100017.00;;;;5049176;28;20174;-45
2022/09/08 04:41:57;;;;;;;6.90;2.40;;;24.10;60.70;24.90;100010.00;;;;5048842;28;20701;-43
2022/09/08 04:44:23;;;;;;;5.43;2.50;;;24.10;60.30;24.90;100007.00;;;;5049077;28;20177;-44
2022/09/08 04:46:49;;;;;;;2.93;2.40;;;24.20;60.20;24.90;100013.00;;;;5048598;28;20533;-44
2022/09/08 04:49:15;;;;;;;3.37;2.20;;;24.20;60.20;24.90;100006.00;;;;5048926;28;20279;-44
2022/09/08 04:51:42;;;;;;;7.70;2.80;;;24.20;60.20;24.90;100001.00;;;;5048796;28;20533;-44
2022/09/08 04:54:09;;;;;;;3.50;2.53;;;24.10;60.10;24.90;100012.00;;;;5048719;28;20177;-44
2022/09/08 04:56:34;;;;;;;5.03;2.50;;;24.10;60.10;24.90;100000.00;;;;5048653;28;20197;-44
2022/09/08 04:59:00;;;;;;;7.33;2.90;;;24.20;60.00;24.90;100003.00;;;;5049463;28;20178;-44
2022/09/08 05:01:34;;;;;;;7.93;2.60;;;24.20;60.20;24.90;100007.00;;;;5049320;28;20329;-43
2022/09/08 05:04:01;;;;;;;7.30;3.00;;;24.20;60.20;24.90;100007.00;;;;5048839;28;20159;-44
2022/09/08 05:06:28;;;;;;;7.33;2.67;;;24.20;60.20;24.90;100013.00;;;;5047020;28;20277;-47
2022/09/08 05:08:56;;;;;;;6.57;2.70;;;24.20;60.20;24.90;100014.00;;;;5047981;28;20162;-45
2022/09/08 05:11:23;;;;;;;4.60;2.50;;;24.20;60.10;24.90;99997.00;;;;5048439;28;20255;-44
2022/09/08 05:13:51;;;;;;;4.03;2.20;;;24.20;60.10;24.90;100005.00;;;;5048564;28;20181;-45
2022/09/08 05:16:22;;;;;;;3.63;2.30;;;24.20;60.10;24.90;100000.00;;;;5048359;28;20170;-45
2022/09/08 05:18:50;;;;;;;4.10;2.50;;;24.20;60.20;24.90;100007.00;;;;5049038;28;20256;-44
2022/09/08 05:21:16;;;;;;;4.53;2.47;;;24.10;60.00;24.80;100014.00;;;;5048039;28;20271;-45
2022/09/08 05:23:42;;;;;;;2.50;2.30;;;24.20;59.90;24.80;100013.00;;;;5063301;28;20177;-45
2022/09/08 05:26:12;;;;;;;3.83;2.60;;;24.20;59.90;24.80;100005.00;;;;5071734;28;20191;-44
2022/09/08 05:28:39;;;;;;;2.57;2.37;;;24.20;59.90;24.80;100002.00;;;;5069114;28;20177;-43
2022/09/08 05:31:05;;;;;;;2.43;2.20;;;24.20;59.90;24.80;100000.00;;;;5048322;28;20187;-43
2022/09/08 05:33:31;;;;;;;2.50;2.30;;;24.10;59.80;24.80;100009.00;;;;5048300;28;20562;-45
2022/09/08 05:35:57;;;;;;;2.40;2.20;;;24.10;59.90;24.80;100003.00;;;;5048042;28;20262;-44
2022/09/08 05:38:23;;;;;;;2.77;2.40;;;24.10;59.80;24.80;99994.00;;;;5048459;28;20174;-45
2022/09/08 05:40:48;;;;;;;2.80;2.30;;;24.10;59.70;24.80;99998.00;;;;5047847;28;20198;-45
2022/09/08 05:43:15;;;;;;;2.30;2.10;;;24.10;59.70;24.80;100001.00;;;;5047917;28;20473;-44
2022/09/08 05:45:48;;;;;;;3.87;2.50;;;24.20;59.80;24.70;100001.00;;;;5046571;28;20190;-45
2022/09/08 05:48:14;;;;;;;2.50;2.30;;;24.10;59.70;24.70;99995.00;;;;5046197;28;20170;-44
2022/09/08 05:50:43;;;;;;;3.50;2.57;;;24.10;59.60;24.70;99999.00;;;;5047886;28;20210;-44
2022/09/08 05:53:09;;;;;;;2.87;2.20;;;24.10;59.60;24.70;99999.00;;;;5047378;28;20170;-45
2022/09/08 05:55:35;;;;;;;2.67;2.17;;;24.10;59.60;24.70;100005.00;;;;5047311;28;20642;-44
2022/09/08 05:58:01;;;;;;;2.43;2.20;;;24.10;59.50;24.70;100006.00;;;;5047412;28;20178;-44
2022/09/08 06:00:26;;;;;;;3.10;2.30;;;24.00;59.40;24.70;100012.00;;;;5047708;28;20432;-43
2022/09/08 06:02:52;;;;;;;2.50;2.30;;;24.00;59.40;24.70;100013.00;;;;5047835;28;20171;-43
2022/09/08 06:05:21;;;;;;;2.20;2.10;;;24.00;59.50;24.70;100010.00;;;;5047650;28;20202;-44
2022/09/08 06:07:49;;;;;;;2.40;2.20;;;24.00;59.70;24.70;100021.00;;;;5047460;28;20550;-45
2022/09/08 06:10:15;;;;;;;2.60;2.40;;;24.00;59.50;24.70;100018.00;;;;5047310;28;20209;-43
2022/09/08 06:12:41;;;;;;;2.50;2.30;;;24.00;59.60;24.70;100025.00;;;;5047460;28;20736;-44
2022/09/08 06:15:08;;;;;;;2.47;2.27;;;23.90;59.60;24.70;100018.00;;;;5047375;28;20178;-44
2022/09/08 06:17:33;;;;;;;3.03;2.37;;;23.90;59.60;24.70;100014.00;;;;5046883;28;20371;-43
2022/09/08 06:19:59;;;;;;;2.30;2.10;;;23.90;59.60;24.70;100009.00;;;;5046944;28;20344;-44
2022/09/08 06:22:25;;;;;;;2.73;2.40;;;23.90;59.70;24.70;100010.00;;;;5047370;28;20268;-45
2022/09/08 06:24:51;;;;;;;2.20;2.00;;;23.90;59.70;24.70;100011.00;;;;5051258;28;20217;-45
2022/09/08 06:27:47;;;;;;;2.50;2.30;;;23.90;59.70;24.70;100014.00;;;;5052249;28;20182;-43
2022/09/08 06:30:15;;;;;;;3.00;2.23;;;23.80;59.60;24.70;100020.00;;;;5048451;28;20194;-44
2022/09/08 06:32:57;;;;;;;2.33;2.13;;;23.80;59.60;24.70;100016.00;;;;5048324;28;20185;-44
2022/09/08 06:36:18;;;;;;;2.30;2.10;;;23.80;59.60;24.60;100020.00;;;;5046990;28;20241;-44
2022/09/08 06:39:08;;;;;;;2.40;2.20;;;23.80;59.60;24.60;100022.00;;;;5006438;28;20190;-44
2022/09/08 06:41:45;;;;;;;2.40;2.20;;;23.80;59.60;24.60;100022.00;;;;5047928;28;20529;-43
2022/09/08 06:44:19;;;;;;;2.50;2.20;;;23.80;59.70;24.60;100020.00;;;;5047362;28;20574;-44
2022/09/08 06:46:45;;;;;;;2.50;2.30;;;23.80;59.70;24.60;100016.00;;;;5049023;28;20278;-44
2022/09/08 06:49:11;;;;;;;2.40;2.20;;;23.80;59.70;24.60;100037.00;;;;5049575;28;20174;-43
2022/09/08 06:52:13;;;;;;;2.50;2.30;;;23.80;59.70;24.60;100028.00;;;;5048873;28;20213;-44
2022/09/08 06:55:23;;;;;;;2.10;2.00;;;23.70;59.70;24.60;100030.00;;;;5046866;28;20658;-43
2022/09/08 06:58:23;;;;;;;2.33;2.13;;;23.70;59.70;24.50;100034.00;;;;5005767;28;20185;-44
2022/09/08 07:01:26;;;;;;;2.60;2.40;;;23.70;59.70;24.50;100029.00;;;;5049194;28;20190;-45
2022/09/08 07:04:16;;;;;;;2.60;2.40;;;23.70;59.70;24.50;100032.00;;;;4993363;28;20187;-44
2022/09/08 07:07:00;;;;;;;2.17;2.03;;;23.70;59.80;24.50;100037.00;;;;5045921;28;20214;-45
2022/09/08 07:09:53;;;;;;;2.30;2.10;;;23.70;59.70;24.50;100035.00;;;;5049762;28;20646;-45
2022/09/08 07:12:44;;;;;;;2.20;2.10;;;23.60;59.70;24.50;100023.00;;;;5053120;28;20174;-45
2022/09/08 07:15:37;;;;;;;2.90;2.60;;;23.60;59.60;24.50;100028.00;;;;5049690;28;20161;-44
2022/09/08 07:18:24;;;;;;;2.40;2.20;;;23.60;59.80;24.40;100042.00;;;;5050686;28;20655;-45
2022/09/08 07:20:55;;;;;;;3.00;2.17;;;23.60;59.80;24.40;100049.00;;;;5049857;28;20213;-48
2022/09/08 07:23:24;;;;;;;4.73;2.40;;;23.60;60.00;24.40;100045.00;;;;5050104;28;20204;-44
2022/09/08 07:26:02;;;;;;;2.37;2.10;;;23.60;60.00;24.00;100049.00;;;;5049077;28;20194;-43
2022/09/08 07:28:33;;;;;;;2.23;2.10;;;23.60;59.90;24.40;100049.00;;;;5049355;28;20654;-45
2022/09/08 07:31:04;;;;;;;2.27;2.07;;;23.60;59.90;24.40;100060.00;;;;5049346;28;20204;-44
2022/09/08 07:33:38;;;;;;;2.27;2.07;;;23.50;59.80;24.40;100068.00;;;;5049432;28;20220;-44
2022/09/08 07:36:42;;;;;;;2.30;2.10;;;23.60;59.80;24.40;100059.00;;;;5050199;28;20166;-43
2022/09/08 07:39:25;;;;;;;2.30;2.10;;;23.50;60.40;24.40;100070.00;;;;5050674;28;20173;-45
2022/09/08 07:41:53;;;;;;;2.50;2.30;;;23.60;59.70;24.40;100052.00;;;;5049161;28;20394;-44
2022/09/08 07:44:19;;;;;;;2.40;2.20;;;23.50;59.70;24.40;100069.00;;;;5050172;28;20530;-43
2022/09/08 07:46:51;;;;;;;2.30;2.10;;;23.60;59.60;24.40;100053.00;;;;5048804;28;20194;-44
2022/09/08 07:49:25;;;;;;;2.43;2.23;;;23.60;59.60;24.40;100058.00;;;;5049716;28;20793;-44
2022/09/08 07:52:22;;;;;;;2.47;2.27;;;23.50;59.40;24.40;100064.00;;;;5047669;28;20224;-45
2022/09/08 07:55:02;;;;;;;3.17;2.40;;;23.60;59.30;24.40;100075.00;;;;5049331;28;20315;-45
2022/09/08 07:58:05;;;;;;;4.87;2.30;;;23.60;59.20;24.40;100070.00;;;;4899599;28;20541;-44
2022/09/08 08:00:58;;;;;;;2.30;2.10;;;23.60;58.90;24.40;100076.00;;;;5049609;28;20677;-45
2022/09/08 08:03:45;;;;;;;2.40;2.10;;;23.60;58.90;24.40;100078.00;;;;5061896;28;20181;-44
2022/09/08 08:06:33;;;;;;;3.50;2.20;;;23.60;58.90;24.40;100080.00;;;;5069724;28;20197;-45
2022/09/08 08:09:21;;;;;;;2.27;2.07;;;23.60;58.90;24.40;100079.00;;;;5053242;28;20193;-44
2022/09/08 08:11:51;;;;;;;2.63;2.00;;;23.60;58.90;24.40;100090.00;;;;5068583;28;20186;-44
2022/09/08 08:14:44;;;;;;;2.67;2.07;;;23.60;58.90;24.40;100083.00;;;;5068379;28;20296;-44
2022/09/08 08:17:13;;;;;;;2.20;2.00;;;23.60;59.10;24.40;100088.00;;;;5069818;28;20170;-44
2022/09/08 08:19:58;;;;;;;7.20;2.40;;;23.60;59.00;24.40;100095.00;;;;5069144;28;20200;-44
2022/09/08 08:22:32;;;;;;;7.93;2.23;;;23.60;59.20;24.40;100091.00;;;;5053097;28;20158;-44
2022/09/08 08:25:21;;;;;;;3.73;2.30;;;23.70;59.20;24.40;100103.00;;;;5069731;28;20193;-44
2022/09/08 08:28:13;;;;;;;4.50;2.40;;;23.70;59.30;24.40;100103.00;;;;5039945;28;20193;-44
2022/09/08 08:31:30;;;;;;;5.00;2.20;;;23.70;59.20;24.40;100106.00;;;;5059883;28;20415;-43
2022/09/08 08:34:10;;;;;;;4.10;2.20;;;23.80;60.20;24.40;100097.00;;;;5057272;28;20292;-43
2022/09/08 08:36:40;;;;;;;4.03;2.60;;;23.80;59.40;24.40;100106.00;;;;5069443;28;20169;-45
2022/09/08 08:39:20;;;;;;;5.00;2.17;;;23.80;59.40;24.40;100109.00;;;;5058884;28;20158;-44
2022/09/08 08:41:46;;;;;;;6.47;2.20;;;23.80;59.60;24.50;100100.00;;;;5058256;28;20224;-44
2022/09/08 08:44:48;;;;;;;3.40;1.90;;;23.80;59.40;24.50;100107.00;;;;5068874;28;20173;-44
2022/09/08 08:47:39;;;;;;;3.97;2.10;;;23.80;59.20;24.50;100099.00;;;;5069759;28;20204;-44
2022/09/08 08:50:26;;;;;;;4.73;2.10;;;23.80;59.10;24.50;100109.00;;;;5068032;28;20174;-44
2022/09/08 08:53:42;;;;;;;2.93;2.10;;;23.80;59.10;24.50;100112.00;;;;5067475;28;20304;-46
2022/09/08 08:56:34;;;;;;;2.63;1.90;;;23.80;59.10;24.40;100111.00;;;;5016778;28;20205;-47
2022/09/08 08:59:41;;;;;;;4.00;2.17;;;23.90;58.90;24.40;100115.00;;;;5048049;28;20162;-44
2022/09/08 09:02:53;;;;;;;2.33;1.80;;;23.80;59.10;24.40;100105.00;;;;5048155;28;20193;-45
2022/09/08 09:05:38;;;;;;;3.50;2.10;;;23.80;59.00;24.40;100107.00;;;;5048365;28;20255;-44
2022/09/08 09:08:41;;;;;;;2.93;1.93;;;23.80;59.00;24.40;100112.00;;;;5046488;28;20182;-44
2022/09/08 09:11:19;;;;;;;2.53;1.90;;;23.80;58.90;24.40;100113.00;;;;5082519;28;20197;-45
2022/09/08 09:14:34;;;;;;;3.13;2.10;;;23.80;59.00;24.50;100119.00;;;;5092140;28;20158;-45
2022/09/08 09:17:15;;;;;;;6.77;2.10;;;23.80;59.00;24.40;100123.00;;;;5090248;28;20259;-44
2022/09/08 09:20:18;;;;;;;7.17;2.37;;;23.80;59.00;24.40;100116.00;;;;5087683;28;20177;-45
2022/09/08 09:23:11;;;;;;;12.47;2.60;;;23.80;59.00;24.40;100117.00;;;;5073575;28;20165;-46
2022/09/08 09:25:51;;;;;;;8.03;2.33;;;23.80;59.50;24.40;100112.00;;;;5086272;28;20205;-44
2022/09/08 09:28:50;;;;;;;4.73;2.63;;;23.80;59.20;24.40;100116.00;;;;5072295;28;20164;-44
2022/09/08 09:31:50;;;;;;;8.00;2.30;;;23.80;59.20;24.40;100120.00;;;;5048398;28;20198;-45
2022/09/08 09:34:56;;;;;;;11.23;4.40;;;23.80;59.20;24.50;100111.00;;;;5050671;28;20166;-44
2022/09/08 09:37:59;;;;;;;11.00;5.23;;;23.80;59.50;24.50;100107.00;;;;5046206;28;20151;-44
2022/09/08 09:40:50;;;;;;;16.80;5.80;;;23.80;59.90;24.50;100112.00;;;;5046752;28;20279;-44
2022/09/08 09:43:43;;;;;;;11.20;5.47;;;23.80;60.10;24.50;100113.00;;;;5056878;28;20269;-45
2022/09/08 09:46:36;;;;;;;12.47;6.07;;;23.80;60.40;24.50;100113.00;;;;5048926;28;20286;-44
2022/09/08 09:49:40;;;;;;;12.13;6.00;;;23.90;61.10;24.60;100109.00;;;;5047698;28;20679;-45
2022/09/08 09:52:25;;;;;;;17.43;8.70;;;23.80;61.10;24.60;100119.00;;;;5019724;28;20213;-46
2022/09/08 09:55:24;;;;;;;19.03;8.43;;;23.90;61.90;24.60;100112.00;;;;5062776;28;20181;-46
2022/09/08 09:58:20;;;;;;;16.10;8.53;;;23.90;62.90;24.60;100112.00;;;;4960386;28;20181;-46
2022/09/08 10:01:59;;;;;;;19.03;8.13;;;24.00;62.60;24.70;100118.00;;;;5089270;28;20264;-44
2022/09/08 10:05:14;;;;;;;16.58;8.23;;;24.00;62.80;24.70;100111.00;;;;5006106;28;20235;-45
2022/09/08 10:08:24;;;;;;;14.17;7.63;;;24.00;63.60;24.70;100108.00;;;;5087839;28;20171;-44
2022/09/08 10:11:33;;;;;;;16.67;7.33;;;24.10;62.90;24.70;100109.00;;;;5073603;28;20311;-44
2022/09/08 10:14:41;;;;;;;13.90;8.43;;;24.10;62.90;24.70;100108.00;;;;5089143;28;20176;-44
2022/09/08 10:17:37;;;;;;;11.97;7.23;;;24.10;62.90;24.70;100105.00;;;;5087238;28;20172;-45
2022/09/08 10:20:27;;;;;;;13.80;7.33;;;24.10;62.60;24.70;100105.00;;;;5088822;28;20157;-44
2022/09/08 10:22:53;;;;;;;11.90;7.23;;;24.00;62.30;24.70;100110.00;;;;5091068;28;20157;-45
2022/09/08 10:25:58;;;;;;;13.30;7.53;;;24.00;62.20;24.80;100105.00;;;;5088700;28;20197;-45
2022/09/08 10:29:06;;;;;;;9.87;6.80;;;24.00;62.10;24.70;100102.00;;;;5091981;28;20735;-44
2022/09/08 10:32:10;;;;;;;11.17;6.73;;;24.00;61.90;24.70;100107.00;;;;5086041;28;20217;-45
2022/09/08 10:35:05;;;;;;;12.40;6.57;;;24.00;61.90;24.70;100103.00;;;;5095407;28;20165;-46
2022/09/08 10:38:02;;;;;;;11.50;6.53;;;24.00;61.70;24.70;100093.00;;;;5094488;28;20165;-45
2022/09/08 10:40:59;;;;;;;12.23;6.20;;;24.00;61.50;24.70;100100.00;;;;5093463;28;20196;-44
2022/09/08 10:43:37;;;;;;;9.03;6.10;;;24.00;61.40;24.70;100097.00;;;;5095114;28;20702;-45
2022/09/08 10:46:27;;;;;;;10.07;5.97;;;24.00;61.30;24.70;100092.00;;;;5084997;28;20563;-44
2022/09/08 10:48:59;;;;;;;9.37;5.60;;;24.00;61.30;24.70;100104.00;;;;5051804;28;20162;-45
2022/09/08 10:51:36;;;;;;;8.97;5.73;;;24.10;61.30;24.70;100094.00;;;;5067947;28;20416;-44
2022/09/08 10:55:03;;;;;;;12.30;5.77;;;24.00;61.30;24.70;100086.00;;;;5068324;28;20200;-45
2022/09/08 10:58:25;;;;;;;12.07;5.60;;;24.10;61.20;24.70;100083.00;;;;4946235;28;20646;-46
2022/09/08 11:01:03;;;;;;;10.23;5.27;;;24.00;61.30;24.70;100087.00;;;;5067800;28;20225;-46
2022/09/08 11:04:09;;;;;;;8.87;4.87;;;24.10;61.10;24.80;100082.00;;;;5051053;28;20424;-46
2022/09/08 11:06:53;;;;;;;7.67;4.90;;;24.10;60.90;24.80;100086.00;;;;5066683;28;20452;-44
2022/09/08 11:09:44;;;;;;;8.83;4.83;;;24.10;60.90;24.80;100083.00;;;;5067664;28;20264;-44
2022/09/08 11:12:36;;;;;;;7.83;5.03;;;24.10;60.70;24.80;100073.00;;;;5053522;28;20193;-45
2022/09/08 11:15:17;;;;;;;7.53;4.90;;;24.10;60.70;24.80;100079.00;;;;5066664;28;20519;-44
2022/09/08 11:17:47;;;;;;;9.23;4.63;;;24.10;60.50;24.80;100083.00;;;;5067580;28;20610;-45
2022/09/08 11:21:08;;;;;;;6.87;4.40;;;24.10;60.50;24.80;100075.00;;;;5066318;28;20281;-44
2022/09/08 11:23:58;;;;;;;7.57;4.37;;;24.10;60.40;24.80;100065.00;;;;5023880;28;20216;-45
2022/09/08 11:26:55;;;;;;;8.13;4.30;;;24.10;60.40;24.80;100070.00;;;;5066527;28;20647;-45
2022/09/08 11:29:21;;;;;;;8.53;4.40;;;24.10;60.60;24.80;100063.00;;;;5067693;28;20167;-45
2022/09/08 11:32:34;;;;;;;7.63;4.03;;;24.10;60.50;24.80;100068.00;;;;5049461;28;20194;-46
2022/09/08 11:35:42;;;;;;;8.73;4.10;;;24.10;60.30;24.80;100070.00;;;;5066267;28;20182;-46